Time;durP1;ratioP1;P1;durP2;ratioP2;P2;SDS_P1;SDS_P2;PMS_P1;PMS_P2;Temp;Humidity;BMP_temperature;BMP_pressure;BME280_temperature;BME280_humidity;BME280_pressure;Samples;Min_cycle;Max_cycle;Signal;HPM_P1;HPM_P2
2022/07/09 00:00:01;;;;;;;4.35;2.92;;;18.00;99.90;;;;;;5021947;28;20052;-88
2022/07/09 00:02:26;;;;;;;3.72;2.78;;;18.00;99.90;;;;;;5003834;28;20045;-87
2022/07/09 00:04:52;;;;;;;3.40;2.80;;;17.90;99.90;;;;;;5020586;28;20045;-88
2022/07/09 00:07:17;;;;;;;4.13;2.65;;;17.90;99.90;;;;;;5021486;28;20088;-88
2022/07/09 00:09:43;;;;;;;2.72;2.50;;;18.00;99.90;;;;;;5021584;28;20052;-87
2022/07/09 00:12:09;;;;;;;5.20;2.80;;;18.00;99.90;;;;;;5021370;28;20071;-87
2022/07/09 00:14:34;;;;;;;3.50;3.00;;;17.90;99.90;;;;;;5020693;28;20057;-88
2022/07/09 00:17:01;;;;;;;10.70;3.28;;;17.90;99.90;;;;;;5021324;28;20095;-88
2022/07/09 00:19:26;;;;;;;5.32;2.60;;;17.90;99.90;;;;;;5022590;28;20073;-85
2022/07/09 00:21:52;;;;;;;4.13;3.00;;;18.00;99.90;;;;;;5020182;28;20394;-86
2022/07/09 00:24:18;;;;;;;3.83;2.63;;;17.90;99.90;;;;;;5020842;28;20595;-86
2022/07/09 00:26:44;;;;;;;7.72;2.88;;;17.90;99.90;;;;;;5020820;28;20088;-84
2022/07/09 00:29:09;;;;;;;3.72;2.25;;;18.00;99.90;;;;;;5022589;28;20129;-86
2022/07/09 00:31:35;;;;;;;5.53;2.67;;;17.90;99.90;;;;;;5003271;28;20117;-86
2022/07/09 00:34:01;;;;;;;2.40;2.10;;;18.00;99.90;;;;;;5020258;28;20400;-86
2022/07/09 00:36:27;;;;;;;4.70;1.58;;;18.00;99.90;;;;;;5019632;28;20059;-85
2022/07/09 00:38:52;;;;;;;6.00;2.17;;;18.00;99.90;;;;;;5020721;28;20045;-86
2022/07/09 00:41:18;;;;;;;2.85;2.42;;;18.00;99.90;;;;;;5020160;28;20053;-86
2022/07/09 00:43:48;;;;;;;4.38;2.08;;;18.00;99.90;;;;;;5019347;28;20071;-79
2022/07/09 00:46:14;;;;;;;5.20;1.50;;;18.00;99.90;;;;;;5003922;28;20477;-84
2022/07/09 00:48:40;;;;;;;3.38;2.55;;;18.00;99.90;;;;;;5020316;28;20132;-85
2022/07/09 00:51:06;;;;;;;2.10;1.88;;;18.00;99.90;;;;;;5020943;28;20133;-85
2022/07/09 00:53:32;;;;;;;2.10;1.90;;;18.00;99.90;;;;;;5021494;28;20144;-86
2022/07/09 00:55:58;;;;;;;4.72;1.75;;;18.00;99.90;;;;;;5018801;28;20099;-86
2022/07/09 00:58:24;;;;;;;4.75;1.63;;;18.00;99.90;;;;;;5019393;28;20539;-87
2022/07/09 01:00:49;;;;;;;2.88;1.65;;;18.00;99.90;;;;;;5019536;28;20045;-85
2022/07/09 01:03:15;;;;;;;2.67;2.38;;;18.00;99.90;;;;;;5019517;28;20491;-85
2022/07/09 01:05:41;;;;;;;2.67;1.88;;;18.00;99.90;;;;;;5038522;22;20140;-83
2022/07/09 01:08:08;;;;;;;3.40;1.48;;;18.00;99.90;;;;;;5040851;28;20510;-82
2022/07/09 01:10:35;;;;;;;3.47;2.05;;;18.00;99.90;;;;;;5040828;28;20128;-83
2022/07/09 01:13:04;;;;;;;2.42;1.70;;;18.00;99.90;;;;;;5037774;28;20132;-83
2022/07/09 01:15:30;;;;;;;4.22;1.73;;;18.00;99.90;;;;;;5039932;28;20052;-82
2022/07/09 01:17:57;;;;;;;2.35;1.60;;;18.00;99.90;;;;;;5040736;28;20051;-83
2022/07/09 01:20:26;;;;;;;1.60;1.25;;;17.90;99.90;;;;;;5040798;28;20048;-82
2022/07/09 01:22:52;;;;;;;1.25;1.15;;;18.00;99.90;;;;;;5041398;28;20084;-82
2022/07/09 01:25:18;;;;;;;2.63;1.70;;;17.90;99.90;;;;;;5040506;28;20479;-82
2022/07/09 01:27:47;;;;;;;3.90;2.28;;;17.90;99.90;;;;;;5039121;28;20072;-82
2022/07/09 01:30:27;;;;;;;1.77;1.55;;;17.90;99.90;;;;;;5041434;28;20128;-83
2022/07/09 01:32:53;;;;;;;1.90;1.73;;;17.90;99.90;;;;;;5040833;28;20091;-83
2022/07/09 01:35:21;;;;;;;5.75;1.73;;;17.90;99.90;;;;;;5040963;28;20778;-83
2022/07/09 01:37:47;;;;;;;2.53;1.95;;;17.90;99.90;;;;;;5039230;28;20124;-83
2022/07/09 01:40:13;;;;;;;3.17;1.60;;;17.90;99.90;;;;;;5040766;28;20803;-83
2022/07/09 01:42:38;;;;;;;1.75;1.45;;;17.90;99.90;;;;;;5040525;28;20041;-82
2022/07/09 01:45:04;;;;;;;5.03;2.15;;;17.90;99.90;;;;;;5040415;28;20219;-82
2022/07/09 01:47:30;;;;;;;4.97;2.13;;;17.80;99.90;;;;;;5040439;28;20044;-83
2022/07/09 01:49:56;;;;;;;3.05;1.85;;;17.80;99.90;;;;;;5039192;28;20121;-83
2022/07/09 01:52:21;;;;;;;4.65;2.08;;;17.80;99.90;;;;;;5039603;28;20041;-83
2022/07/09 01:54:47;;;;;;;4.20;2.50;;;17.80;99.90;;;;;;5039042;28;20053;-83
2022/07/09 01:57:12;;;;;;;2.28;2.10;;;17.80;99.90;;;;;;5038532;28;20076;-83
2022/07/09 01:59:38;;;;;;;3.05;2.15;;;17.80;99.90;;;;;;5040485;28;20498;-82
2022/07/09 02:02:05;;;;;;;5.47;2.58;;;17.80;99.90;;;;;;5039875;28;20045;-83
2022/07/09 02:04:31;;;;;;;5.00;2.65;;;17.70;99.90;;;;;;5040644;28;20087;-83
2022/07/09 02:06:56;;;;;;;3.03;2.15;;;17.70;99.90;;;;;;5039713;28;20084;-82
2022/07/09 02:09:22;;;;;;;2.58;1.95;;;17.70;99.90;;;;;;5040446;28;20095;-83
2022/07/09 02:11:48;;;;;;;2.45;1.70;;;17.70;99.90;;;;;;5038768;28;20045;-83
2022/07/09 02:14:14;;;;;;;1.75;1.65;;;17.70;99.90;;;;;;5040902;28;20763;-82
2022/07/09 02:16:39;;;;;;;3.28;2.47;;;17.70;99.90;;;;;;5040574;28;20068;-83
2022/07/09 02:19:06;;;;;;;3.95;2.25;;;17.70;99.90;;;;;;5055500;28;20087;-83
2022/07/09 02:21:32;;;;;;;2.15;1.80;;;17.70;99.90;;;;;;5039969;28;20044;-83
2022/07/09 02:23:58;;;;;;;1.85;1.75;;;17.70;99.90;;;;;;5039295;28;20037;-84
2022/07/09 02:26:25;;;;;;;3.47;2.47;;;17.70;99.90;;;;;;5043054;28;20110;-82
2022/07/09 02:28:51;;;;;;;2.70;1.73;;;17.70;99.90;;;;;;5044549;28;20044;-83
2022/07/09 02:31:17;;;;;;;5.28;2.75;;;17.60;99.90;;;;;;5044185;28;20140;-83
2022/07/09 02:33:44;;;;;;;2.67;2.10;;;17.60;99.90;;;;;;5045092;28;20522;-82
2022/07/09 02:36:09;;;;;;;3.97;2.85;;;17.60;99.90;;;;;;5043651;28;20175;-82
2022/07/09 02:38:35;;;;;;;2.70;2.03;;;17.60;99.90;;;;;;5044271;28;20052;-83
2022/07/09 02:41:01;;;;;;;8.45;2.10;;;17.60;99.90;;;;;;5043658;28;20033;-82
2022/07/09 02:43:27;;;;;;;3.25;1.90;;;17.60;99.90;;;;;;5042530;28;20491;-82
2022/07/09 02:45:55;;;;;;;2.65;2.17;;;17.60;99.90;;;;;;5043955;28;20036;-83
2022/07/09 02:48:23;;;;;;;3.38;1.92;;;17.60;99.90;;;;;;5024520;28;20045;-83
2022/07/09 02:50:52;;;;;;;2.42;2.22;;;17.60;99.90;;;;;;5041433;28;20083;-83
2022/07/09 02:53:18;;;;;;;4.57;2.58;;;17.50;99.90;;;;;;5044031;28;20041;-83
2022/07/09 02:55:44;;;;;;;3.28;1.55;;;17.50;99.90;;;;;;5043899;28;20230;-84
2022/07/09 02:58:10;;;;;;;2.63;1.45;;;17.50;99.90;;;;;;5043032;28;20120;-83
2022/07/09 03:00:39;;;;;;;6.13;2.65;;;17.50;99.90;;;;;;5043861;28;20041;-84
2022/07/09 03:03:05;;;;;;;3.15;2.47;;;17.50;99.90;;;;;;5043377;28;20080;-83
2022/07/09 03:05:31;;;;;;;4.75;2.60;;;17.50;99.90;;;;;;5043471;28;20080;-83
2022/07/09 03:07:56;;;;;;;4.63;2.35;;;17.50;99.90;;;;;;5042951;28;20110;-82
2022/07/09 03:10:22;;;;;;;2.90;2.08;;;17.50;99.90;;;;;;5043666;28;20479;-83
2022/07/09 03:12:48;;;;;;;2.63;2.42;;;17.50;99.90;;;;;;5042016;28;20048;-82
2022/07/09 03:15:14;;;;;;;3.58;2.83;;;17.50;99.90;;;;;;5042133;28;20045;-80
2022/07/09 03:17:40;;;;;;;2.42;2.05;;;17.50;99.90;;;;;;5026085;28;20064;-82
2022/07/09 03:20:06;;;;;;;5.32;2.78;;;17.40;99.90;;;;;;5025085;28;20562;-83
2022/07/09 03:22:32;;;;;;;3.92;2.42;;;17.40;99.90;;;;;;5042453;28;20049;-83
2022/07/09 03:24:57;;;;;;;5.60;3.20;;;17.40;99.90;;;;;;5042342;28;20037;-83
2022/07/09 03:27:23;;;;;;;2.78;2.58;;;17.40;99.90;;;;;;5042810;28;20033;-83
2022/07/09 03:29:49;;;;;;;3.25;2.55;;;17.40;99.90;;;;;;5042606;28;20037;-84
2022/07/09 03:32:14;;;;;;;5.90;2.22;;;17.30;99.90;;;;;;5042152;28;20045;-82
2022/07/09 03:34:40;;;;;;;2.72;2.22;;;17.30;99.90;;;;;;5043387;28;20627;-83
2022/07/09 03:37:06;;;;;;;3.85;3.42;;;17.30;99.90;;;;;;5041582;28;20053;-83
2022/07/09 03:39:31;;;;;;;3.30;2.25;;;17.30;99.90;;;;;;5042747;28;20128;-83
2022/07/09 03:41:57;;;;;;;2.83;2.25;;;17.30;99.90;;;;;;5041500;28;20033;-82
2022/07/09 03:44:22;;;;;;;4.97;2.97;;;17.30;99.90;;;;;;5042973;28;20305;-83
2022/07/09 03:46:48;;;;;;;3.58;2.70;;;17.30;99.90;;;;;;5042232;28;20044;-82
2022/07/09 03:49:14;;;;;;;3.63;2.28;;;17.30;99.90;;;;;;5043087;28;20052;-82
2022/07/09 03:51:39;;;;;;;2.70;2.50;;;17.30;99.90;;;;;;5042868;28;20033;-83
2022/07/09 03:54:05;;;;;;;3.85;2.58;;;17.30;99.90;;;;;;5042096;28;20085;-83
2022/07/09 03:56:30;;;;;;;3.30;2.90;;;17.30;99.90;;;;;;5042085;28;20087;-83
2022/07/09 03:58:56;;;;;;;4.05;3.10;;;17.30;99.90;;;;;;5043165;28;20041;-83
2022/07/09 04:01:22;;;;;;;4.20;2.33;;;17.30;99.90;;;;;;5041773;28;20120;-83
2022/07/09 04:03:47;;;;;;;2.40;2.20;;;17.20;99.90;;;;;;5042830;28;20854;-82
2022/07/09 04:06:13;;;;;;;5.47;2.92;;;17.20;99.90;;;;;;5042118;28;20514;-83
2022/07/09 04:08:39;;;;;;;2.55;2.10;;;17.20;99.90;;;;;;5042693;28;20128;-83
2022/07/09 04:11:04;;;;;;;3.08;2.67;;;17.20;99.90;;;;;;5041092;28;20452;-82
2022/07/09 04:13:30;;;;;;;6.93;2.00;;;17.20;99.90;;;;;;5042061;28;20049;-83
2022/07/09 04:15:56;;;;;;;2.38;2.15;;;17.20;99.90;;;;;;5042114;28;20051;-82
2022/07/09 04:18:21;;;;;;;3.97;2.33;;;17.20;99.90;;;;;;5042059;28;20053;-83
2022/07/09 04:20:47;;;;;;;4.13;2.67;;;17.20;99.90;;;;;;5041148;28;20128;-82
2022/07/09 04:23:12;;;;;;;3.42;2.10;;;17.20;99.90;;;;;;5042236;28;20068;-83
2022/07/09 04:25:38;;;;;;;8.75;3.45;;;17.20;99.90;;;;;;5041529;28;20068;-83
2022/07/09 04:28:05;;;;;;;2.95;2.28;;;17.20;99.90;;;;;;5040966;28;20044;-83
2022/07/09 04:30:30;;;;;;;2.75;1.73;;;17.20;99.90;;;;;;5042527;28;20041;-83
2022/07/09 04:32:56;;;;;;;3.72;1.90;;;17.20;99.90;;;;;;5041149;28;20090;-83
2022/07/09 04:35:22;;;;;;;5.93;2.03;;;17.20;99.90;;;;;;5041085;28;20075;-83
2022/07/09 04:37:48;;;;;;;2.58;2.38;;;17.30;99.90;;;;;;5041423;28;20037;-83
2022/07/09 04:40:13;;;;;;;2.83;1.88;;;17.20;99.90;;;;;;5042058;28;20619;-83
2022/07/09 04:42:39;;;;;;;2.17;1.50;;;17.30;99.90;;;;;;5040781;28;20051;-83
2022/07/09 04:45:05;;;;;;;5.10;2.28;;;17.30;99.90;;;;;;5041452;28;20040;-82
2022/07/09 04:47:30;;;;;;;3.63;1.90;;;17.30;99.90;;;;;;5040155;28;20048;-83
2022/07/09 04:49:56;;;;;;;2.42;2.13;;;17.30;99.90;;;;;;5039822;28;20379;-83
2022/07/09 04:52:26;;;;;;;1.45;1.35;;;17.30;99.90;;;;;;5041543;28;20542;-83
2022/07/09 04:54:52;;;;;;;2.03;1.70;;;17.40;99.90;;;;;;5041508;28;20549;-83
2022/07/09 04:57:18;;;;;;;2.88;2.10;;;17.40;99.90;;;;;;5039610;28;20041;-83
2022/07/09 04:59:43;;;;;;;1.73;1.10;;;17.40;99.90;;;;;;5041532;28;20398;-81
2022/07/09 05:02:09;;;;;;;1.83;1.30;;;17.50;99.90;;;;;;5040485;28;20037;-83
2022/07/09 05:04:34;;;;;;;1.55;1.27;;;17.50;99.90;;;;;;5041031;28;20067;-83
2022/07/09 05:07:03;;;;;;;2.10;1.88;;;17.50;99.90;;;;;;5039569;28;20681;-84
2022/07/09 05:09:29;;;;;;;4.10;1.15;;;17.50;99.90;;;;;;5041020;28;20146;-83
2022/07/09 05:11:54;;;;;;;2.33;1.50;;;17.60;99.90;;;;;;5039925;28;20079;-83
2022/07/09 05:14:20;;;;;;;1.40;1.30;;;17.60;99.90;;;;;;5040998;28;20406;-82
2022/07/09 05:16:46;;;;;;;1.40;1.33;;;17.60;99.90;;;;;;5041217;28;20086;-82
2022/07/09 05:19:12;;;;;;;2.13;1.92;;;17.60;99.90;;;;;;5041464;28;20037;-83
2022/07/09 05:21:41;;;;;;;3.47;1.40;;;17.60;99.90;;;;;;5040931;28;20045;-83
2022/07/09 05:24:07;;;;;;;3.90;1.48;;;17.70;99.90;;;;;;5040615;28;20045;-83
2022/07/09 05:26:35;;;;;;;2.55;1.42;;;17.70;99.90;;;;;;5039995;28;20036;-83
2022/07/09 05:29:02;;;;;;;1.02;1.02;;;17.70;99.90;;;;;;5040545;28;20048;-83
2022/07/09 05:31:28;;;;;;;1.27;1.17;;;17.70;99.90;;;;;;5040911;28;20041;-82
2022/07/09 05:33:54;;;;;;;1.20;1.10;;;17.70;99.90;;;;;;5039546;28;20053;-82
2022/07/09 05:36:19;;;;;;;2.40;1.40;;;17.70;99.90;;;;;;5040324;28;20076;-82
2022/07/09 05:38:47;;;;;;;1.13;1.02;;;17.70;99.90;;;;;;5039213;28;20068;-84
2022/07/09 05:41:14;;;;;;;4.70;1.55;;;17.70;99.90;;;;;;5040013;28;20064;-83
2022/07/09 05:43:39;;;;;;;1.45;1.30;;;17.80;99.90;;;;;;5039884;28;20045;-83
2022/07/09 05:46:08;;;;;;;1.67;0.95;;;17.80;99.90;;;;;;5040185;28;20539;-83
2022/07/09 05:48:36;;;;;;;1.30;1.13;;;17.70;99.90;;;;;;5040954;28;20612;-83
2022/07/09 05:51:02;;;;;;;1.65;1.15;;;17.80;99.90;;;;;;5040105;28;20135;-83
2022/07/09 05:53:30;;;;;;;2.38;1.77;;;17.80;99.90;;;;;;5040622;28;20454;-83
2022/07/09 05:56:02;;;;;;;1.55;1.33;;;17.80;99.90;;;;;;5039493;28;20037;-83
2022/07/09 05:58:30;;;;;;;1.33;1.00;;;17.80;99.90;;;;;;5038891;28;20072;-83
2022/07/09 06:00:56;;;;;;;2.10;1.65;;;17.80;99.90;;;;;;5038709;28;20056;-83
2022/07/09 06:03:21;;;;;;;3.97;1.15;;;17.80;99.90;;;;;;5039831;28;20064;-82
2022/07/09 06:05:47;;;;;;;2.35;1.55;;;17.90;99.90;;;;;;5039790;28;20080;-83
2022/07/09 06:08:12;;;;;;;2.17;1.70;;;17.90;99.90;;;;;;5041101;28;20048;-82
2022/07/09 06:10:38;;;;;;;1.65;1.30;;;17.90;99.90;;;;;;5039222;28;20161;-82
2022/07/09 06:13:06;;;;;;;2.83;0.68;;;17.90;99.90;;;;;;5039903;28;20049;-86
2022/07/09 06:15:33;;;;;;;1.52;1.40;;;17.90;99.90;;;;;;5039546;28;20071;-85
2022/07/09 06:17:58;;;;;;;5.35;1.80;;;17.90;99.90;;;;;;5039551;28;20057;-80
2022/07/09 06:20:24;;;;;;;3.20;1.58;;;18.00;99.90;;;;;;5038995;28;20859;-78
2022/07/09 06:22:50;;;;;;;2.47;1.50;;;18.00;99.90;;;;;;5041880;28;20119;-79
2022/07/09 06:25:15;;;;;;;2.08;1.20;;;18.00;99.90;;;;;;5031705;28;20054;-79
2022/07/09 06:27:42;;;;;;;1.15;1.05;;;18.00;99.90;;;;;;5040850;28;20040;-81
2022/07/09 06:30:08;;;;;;;2.30;1.50;;;18.10;99.90;;;;;;5036740;28;20041;-81
2022/07/09 06:32:35;;;;;;;7.45;1.45;;;18.00;99.90;;;;;;5035027;28;20124;-81
2022/07/09 06:35:00;;;;;;;1.20;1.10;;;18.10;99.90;;;;;;5020093;28;20496;-80
2022/07/09 06:37:26;;;;;;;1.33;0.95;;;18.00;99.90;;;;;;5025762;28;20132;-80
2022/07/09 06:39:55;;;;;;;5.90;1.90;;;18.10;99.90;;;;;;5034676;28;20073;-80
2022/07/09 06:42:21;;;;;;;2.03;1.20;;;18.10;99.90;;;;;;5051061;28;20115;-79
2022/07/09 06:44:46;;;;;;;1.63;1.35;;;18.10;99.90;;;;;;5059902;28;20128;-79
2022/07/09 06:47:12;;;;;;;4.35;1.50;;;18.10;99.90;;;;;;5040884;28;20040;-80
2022/07/09 06:49:38;;;;;;;1.73;1.10;;;18.10;99.90;;;;;;5046208;28;20049;-80
2022/07/09 06:52:05;;;;;;;1.08;1.02;;;18.10;99.90;;;;;;5059931;28;20037;-80
2022/07/09 06:54:30;;;;;;;1.35;0.70;;;18.10;99.90;;;;;;5040988;28;20055;-79
2022/07/09 06:56:56;;;;;;;1.27;1.15;;;18.10;99.90;;;;;;5056799;28;20589;-79
2022/07/09 06:59:23;;;;;;;2.80;1.92;;;18.10;99.90;;;;;;5056179;28;20442;-79
2022/07/09 07:01:49;;;;;;;4.47;1.38;;;18.00;99.90;;;;;;5038419;28;20748;-79
2022/07/09 07:04:14;;;;;;;1.58;1.35;;;18.00;99.90;;;;;;5039856;28;20091;-82
2022/07/09 07:06:41;;;;;;;3.92;1.33;;;18.10;99.90;;;;;;5040499;28;20061;-79
2022/07/09 07:09:07;;;;;;;1.73;1.40;;;18.10;99.90;;;;;;5039460;28;20585;-80
2022/07/09 07:11:33;;;;;;;1.48;1.38;;;18.10;99.90;;;;;;5020986;28;20049;-80
2022/07/09 07:13:58;;;;;;;1.73;1.33;;;18.10;99.90;;;;;;5041860;28;20104;-80
2022/07/09 07:16:24;;;;;;;1.30;1.15;;;18.10;99.90;;;;;;5041939;28;20407;-78
2022/07/09 07:18:49;;;;;;;2.35;0.90;;;18.10;99.90;;;;;;5041422;28;20097;-77
2022/07/09 07:21:15;;;;;;;4.22;1.42;;;18.20;99.90;;;;;;5043445;28;20045;-77
2022/07/09 07:23:41;;;;;;;1.52;0.90;;;18.20;99.90;;;;;;5042433;28;20067;-78
2022/07/09 07:26:07;;;;;;;2.97;0.88;;;18.20;99.90;;;;;;5041948;28;20082;-79
2022/07/09 07:28:33;;;;;;;2.53;1.08;;;18.20;99.90;;;;;;5042222;28;20080;-79
2022/07/09 07:31:02;;;;;;;1.88;1.08;;;18.20;99.90;;;;;;5041681;28;20789;-79
2022/07/09 07:33:27;;;;;;;4.00;1.23;;;18.20;99.90;;;;;;5043578;28;20109;-79
2022/07/09 07:35:53;;;;;;;2.58;0.82;;;18.30;99.90;;;;;;5042783;28;20597;-79
2022/07/09 07:38:19;;;;;;;2.97;1.70;;;18.30;99.90;;;;;;5042467;28;20059;-79
2022/07/09 07:40:44;;;;;;;3.42;1.65;;;18.30;99.90;;;;;;5041686;28;20120;-79
2022/07/09 07:43:13;;;;;;;1.25;1.15;;;18.30;99.90;;;;;;5041852;28;20090;-78
2022/07/09 07:45:39;;;;;;;6.65;1.63;;;18.40;99.90;;;;;;5041756;28;20045;-79
2022/07/09 07:48:05;;;;;;;5.82;1.90;;;18.50;99.90;;;;;;5041941;28;20404;-77
2022/07/09 07:50:32;;;;;;;0.82;0.73;;;18.50;99.90;;;;;;5043719;28;20044;-75
2022/07/09 07:52:58;;;;;;;1.85;1.58;;;18.50;99.90;;;;;;5042505;28;20063;-75
2022/07/09 07:55:23;;;;;;;1.27;0.88;;;18.60;99.90;;;;;;5042472;28;20488;-75
2022/07/09 07:57:49;;;;;;;1.85;1.30;;;18.60;99.90;;;;;;5040209;28;20048;-75
2022/07/09 08:00:18;;;;;;;1.67;1.17;;;18.60;99.90;;;;;;5042464;28;20151;-75
2022/07/09 08:02:43;;;;;;;1.65;1.02;;;18.70;99.90;;;;;;5042095;28;20073;-75
2022/07/09 08:05:09;;;;;;;2.33;0.77;;;18.70;99.90;;;;;;5041018;28;20075;-75
2022/07/09 08:07:34;;;;;;;0.93;0.93;;;18.70;99.90;;;;;;5042219;28;20045;-75
2022/07/09 08:10:00;;;;;;;3.63;1.67;;;18.70;99.90;;;;;;5042510;28;20123;-75
2022/07/09 08:12:26;;;;;;;1.90;0.82;;;18.70;99.90;;;;;;5039841;28;20048;-75
2022/07/09 08:14:51;;;;;;;1.00;0.73;;;18.80;99.90;;;;;;5041767;28;20561;-77
2022/07/09 08:17:17;;;;;;;1.52;1.00;;;18.80;99.90;;;;;;5042417;28;20069;-75
2022/07/09 08:19:42;;;;;;;2.03;1.20;;;18.80;99.90;;;;;;5042182;28;20103;-78
2022/07/09 08:22:10;;;;;;;0.93;0.60;;;18.80;99.90;;;;;;5041453;28;20083;-77
2022/07/09 08:24:36;;;;;;;0.85;0.80;;;18.80;99.90;;;;;;5042115;28;20041;-78
2022/07/09 08:27:05;;;;;;;1.17;0.93;;;18.80;99.90;;;;;;5038501;28;20498;-79
2022/07/09 08:29:31;;;;;;;0.88;0.82;;;18.80;99.90;;;;;;5041581;28;20036;-77
2022/07/09 08:31:56;;;;;;;3.17;1.67;;;18.80;99.90;;;;;;5039816;28;20049;-84
2022/07/09 08:34:22;;;;;;;3.17;1.23;;;18.80;99.90;;;;;;5040961;28;20044;-78
2022/07/09 08:36:47;;;;;;;2.25;1.38;;;18.80;99.90;;;;;;5041308;28;20071;-79
2022/07/09 08:39:13;;;;;;;8.68;2.10;;;18.90;99.90;;;;;;5042005;28;20087;-79
2022/07/09 08:41:38;;;;;;;0.85;0.77;;;18.90;99.90;;;;;;5041037;28;20442;-79
2022/07/09 08:44:05;;;;;;;4.53;1.08;;;19.00;99.90;;;;;;5039913;28;20049;-79
2022/07/09 08:46:34;;;;;;;1.85;1.33;;;19.00;99.90;;;;;;5040081;28;20137;-79
2022/07/09 08:49:00;;;;;;;2.92;1.73;;;19.00;99.90;;;;;;5039599;28;20068;-79
2022/07/09 08:51:26;;;;;;;1.08;1.00;;;19.00;99.90;;;;;;5039356;28;20055;-79
2022/07/09 08:53:54;;;;;;;1.08;0.88;;;19.10;99.90;;;;;;5040234;28;21039;-79
2022/07/09 08:56:20;;;;;;;5.97;1.35;;;19.00;99.90;;;;;;5040653;28;20053;-79
2022/07/09 08:58:46;;;;;;;2.25;1.05;;;19.00;99.90;;;;;;5041403;28;20047;-78
2022/07/09 09:01:17;;;;;;;3.13;1.15;;;19.00;99.90;;;;;;5041670;28;20131;-79
2022/07/09 09:03:43;;;;;;;4.87;1.17;;;19.00;99.90;;;;;;5024061;28;20040;-79
2022/07/09 09:06:10;;;;;;;2.35;1.17;;;19.00;99.90;;;;;;5039697;28;20087;-79
2022/07/09 09:08:37;;;;;;;1.25;0.75;;;19.10;99.90;;;;;;5041098;28;20041;-79
2022/07/09 09:11:11;;;;;;;3.03;1.23;;;19.10;99.90;;;;;;5038215;28;20064;-79
2022/07/09 09:13:40;;;;;;;2.25;0.93;;;19.20;99.90;;;;;;5038521;28;20070;-80
2022/07/09 09:16:08;;;;;;;0.90;0.90;;;19.20;99.90;;;;;;5040503;28;20044;-79
2022/07/09 09:18:43;;;;;;;2.95;1.75;;;19.20;99.90;;;;;;5039918;28;20045;-79
2022/07/09 09:21:10;;;;;;;2.13;0.80;;;19.20;99.90;;;;;;5039724;28;20663;-79
2022/07/09 09:23:47;;;;;;;2.67;0.98;;;19.30;99.90;;;;;;5040850;28;20442;-78
2022/07/09 09:26:15;;;;;;;1.55;0.77;;;19.40;99.90;;;;;;5020280;28;21023;-80
2022/07/09 09:28:51;;;;;;;4.05;1.13;;;19.40;99.90;;;;;;5028250;28;20395;-80
2022/07/09 09:31:33;;;;;;;3.42;1.48;;;19.40;99.90;;;;;;5040645;28;20120;-80
2022/07/09 09:34:13;;;;;;;3.22;1.65;;;19.40;99.90;;;;;;5041989;28;20082;-79
2022/07/09 09:36:44;;;;;;;2.97;1.38;;;19.40;99.90;;;;;;5061339;28;20127;-79
2022/07/09 09:39:18;;;;;;;0.88;0.88;;;19.40;99.90;;;;;;5049054;28;20053;-79
2022/07/09 09:41:47;;;;;;;3.35;1.70;;;19.40;99.90;;;;;;5039537;28;20037;-79
2022/07/09 09:44:18;;;;;;;3.80;1.35;;;19.50;99.90;;;;;;5029913;28;20488;-78
2022/07/09 09:46:45;;;;;;;2.10;1.45;;;19.50;99.90;;;;;;5019441;28;20127;-80
2022/07/09 09:49:14;;;;;;;1.73;1.00;;;19.50;99.90;;;;;;5021540;28;20472;-78
2022/07/09 09:51:50;;;;;;;3.60;2.08;;;19.50;99.90;;;;;;5038457;28;20821;-79
2022/07/09 09:54:18;;;;;;;2.60;1.23;;;19.60;99.90;;;;;;5038977;28;20045;-80
2022/07/09 09:56:50;;;;;;;1.02;0.82;;;19.70;99.90;;;;;;5037203;28;20590;-79
2022/07/09 09:59:16;;;;;;;6.57;1.75;;;19.70;99.90;;;;;;5039119;28;20064;-81
2022/07/09 10:01:43;;;;;;;2.28;1.30;;;19.70;99.90;;;;;;5039918;28;20332;-85
2022/07/09 10:04:10;;;;;;;4.45;1.75;;;19.60;99.90;;;;;;5039189;28;20364;-82
2022/07/09 10:06:36;;;;;;;4.72;1.45;;;19.60;99.90;;;;;;5039704;28;20106;-84
2022/07/09 10:09:04;;;;;;;1.63;1.15;;;19.50;99.90;;;;;;5039731;28;20043;-82
2022/07/09 10:11:45;;;;;;;1.17;0.70;;;19.30;99.90;;;;;;5037183;28;20144;-81
2022/07/09 10:14:31;;;;;;;2.88;1.50;;;19.20;99.90;;;;;;5031424;28;20072;-81
2022/07/09 10:17:08;;;;;;;3.63;1.42;;;19.10;99.90;;;;;;5040223;28;20053;-84
2022/07/09 10:19:34;;;;;;;1.20;1.10;;;19.00;99.90;;;;;;5036441;28;20053;-85
2022/07/09 10:22:00;;;;;;;5.88;2.40;;;18.90;99.90;;;;;;5059352;28;20049;-85
2022/07/09 10:24:31;;;;;;;5.15;1.73;;;18.80;99.90;;;;;;5048626;28;20052;-85
2022/07/09 10:27:06;;;;;;;1.17;1.08;;;18.80;99.90;;;;;;5059311;28;20036;-86
2022/07/09 10:29:33;;;;;;;3.10;1.27;;;18.70;99.90;;;;;;5060162;28;20123;-86
2022/07/09 10:31:58;;;;;;;2.30;1.52;;;18.60;99.90;;;;;;5059256;28;20122;-86
2022/07/09 10:34:31;;;;;;;4.90;0.95;;;18.70;99.90;;;;;;5060164;28;20470;-85
2022/07/09 10:37:06;;;;;;;1.63;1.27;;;18.70;99.90;;;;;;5051740;28;20102;-83
2022/07/09 10:39:32;;;;;;;1.27;0.82;;;18.80;99.90;;;;;;5040619;28;20116;-87
2022/07/09 10:42:18;;;;;;;0.73;0.73;;;18.80;99.90;;;;;;5037387;28;20560;-86
2022/07/09 10:44:45;;;;;;;2.05;1.08;;;18.90;99.90;;;;;;5020295;28;20049;-90
2022/07/09 10:47:11;;;;;;;3.17;1.05;;;18.90;99.90;;;;;;5026867;28;20041;-91
2022/07/09 10:49:37;;;;;;;0.57;0.57;;;19.00;99.90;;;;;;5041031;28;20050;-90
2022/07/09 10:52:07;;;;;;;3.53;1.20;;;18.90;99.90;;;;;;5041559;28;20044;-87
2022/07/09 10:54:33;;;;;;;1.58;1.00;;;18.90;99.90;;;;;;5041023;28;20041;-88
2022/07/09 10:57:00;;;;;;;0.88;0.80;;;18.90;99.90;;;;;;5039435;28;20041;-90
2022/07/09 10:59:26;;;;;;;1.70;0.90;;;18.90;99.90;;;;;;5042086;28;20041;-90
2022/07/09 11:01:55;;;;;;;1.10;1.00;;;18.90;99.90;;;;;;5042638;28;20041;-89
2022/07/09 11:04:31;;;;;;;2.47;1.10;;;19.00;99.90;;;;;;5040254;28;20076;-89
2022/07/09 11:06:58;;;;;;;0.65;0.65;;;19.00;99.90;;;;;;5040541;28;20090;-88
2022/07/09 11:09:30;;;;;;;0.95;0.88;;;19.10;99.90;;;;;;5041505;28;20052;-90
2022/07/09 11:11:56;;;;;;;0.70;0.50;;;19.10;99.90;;;;;;5041518;28;20033;-88
2022/07/09 11:14:22;;;;;;;2.95;1.02;;;19.20;99.90;;;;;;5042139;28;20059;-90
2022/07/09 11:16:58;;;;;;;1.42;1.20;;;19.20;99.90;;;;;;5041955;28;20043;-90
2022/07/09 11:19:24;;;;;;;1.08;0.95;;;19.20;99.90;;;;;;5042100;28;20534;-89
2022/07/09 11:22:00;;;;;;;0.68;0.43;;;19.20;99.90;;;;;;5041495;28;20077;-89
2022/07/09 11:24:26;;;;;;;0.50;0.50;;;19.30;99.90;;;;;;5041687;28;20063;-89
2022/07/09 11:26:51;;;;;;;1.00;0.93;;;19.30;99.90;;;;;;5041377;28;20040;-90
2022/07/09 11:29:17;;;;;;;0.85;0.85;;;19.30;99.90;;;;;;5040230;28;20411;-89
2022/07/09 11:31:51;;;;;;;5.00;1.30;;;19.20;99.90;;;;;;5042748;28;20037;-88
2022/07/09 11:34:18;;;;;;;4.40;1.02;;;19.20;99.90;;;;;;5040852;28;20411;-89
2022/07/09 11:36:45;;;;;;;0.40;0.30;;;19.20;99.90;;;;;;5040136;28;20047;-87
2022/07/09 11:39:33;;;;;;;1.10;0.35;;;19.20;99.90;;;;;;5042440;28;20041;-87
2022/07/09 11:42:01;;;;;;;1.65;0.93;;;19.20;99.90;;;;;;5040942;28;20037;-88
2022/07/09 11:44:35;;;;;;;0.32;0.32;;;19.20;99.90;;;;;;5040208;28;20090;-87
2022/07/09 11:47:06;;;;;;;0.43;0.40;;;19.10;99.90;;;;;;5040898;28;20037;-89
2022/07/09 11:49:40;;;;;;;2.20;0.82;;;19.10;99.90;;;;;;5042011;28;20040;-89
2022/07/09 11:52:21;;;;;;;2.53;0.50;;;19.10;99.90;;;;;;5041560;28;20119;-91
2022/07/09 11:55:05;;;;;;;0.80;0.52;;;19.10;99.90;;;;;;5040216;28;20222;-89
2022/07/09 11:57:32;;;;;;;0.80;0.70;;;19.10;99.90;;;;;;5040097;28;20048;-90
2022/07/09 11:59:59;;;;;;;2.60;0.50;;;19.10;99.90;;;;;;5041310;28;20252;-89
2022/07/09 12:02:35;;;;;;;3.30;1.30;;;19.00;99.90;;;;;;5041211;28;20045;-90
2022/07/09 12:05:06;;;;;;;0.77;0.77;;;19.00;99.90;;;;;;5040769;28;20052;-88
2022/07/09 12:07:32;;;;;;;1.20;0.90;;;18.90;99.90;;;;;;5041185;28;20403;-89
2022/07/09 12:10:07;;;;;;;1.08;0.50;;;18.90;99.90;;;;;;5040145;28;20079;-91
2022/07/09 12:12:34;;;;;;;1.60;0.70;;;18.90;99.90;;;;;;5041819;28;20067;-87
2022/07/09 12:15:01;;;;;;;1.10;0.75;;;18.90;99.90;;;;;;5040063;28;20482;-88
2022/07/09 12:17:29;;;;;;;3.53;0.50;;;18.90;99.90;;;;;;5041519;28;20045;-90
2022/07/09 12:19:55;;;;;;;1.45;0.85;;;19.00;99.90;;;;;;5039479;28;20124;-89
2022/07/09 12:22:23;;;;;;;1.25;0.55;;;19.00;99.90;;;;;;5039670;28;20044;-90
2022/07/09 12:24:49;;;;;;;0.90;0.88;;;19.00;99.90;;;;;;5038184;28;20053;-89
2022/07/09 12:27:14;;;;;;;1.85;0.95;;;19.10;99.90;;;;;;5041499;28;20091;-90
2022/07/09 12:29:41;;;;;;;0.60;0.40;;;19.10;99.90;;;;;;5040745;28;20503;-92
2022/07/09 12:32:07;;;;;;;1.05;0.68;;;19.20;99.90;;;;;;5041080;28;20049;-89
2022/07/09 12:34:33;;;;;;;2.58;1.70;;;19.20;99.90;;;;;;5040783;28;20033;-90
2022/07/09 12:36:58;;;;;;;6.30;1.17;;;19.10;99.90;;;;;;5039163;28;20052;-88
2022/07/09 12:39:24;;;;;;;3.75;1.20;;;19.10;99.90;;;;;;5040487;28;20499;-92
2022/07/09 12:41:49;;;;;;;1.00;0.75;;;19.10;99.90;;;;;;5039946;28;20426;-88
2022/07/09 12:44:15;;;;;;;4.07;0.95;;;19.00;99.90;;;;;;5040167;28;20154;-88
2022/07/09 12:46:41;;;;;;;0.95;0.85;;;19.10;99.90;;;;;;5041237;28;20090;-88